Time;durP1;ratioP1;P1;durP2;ratioP2;P2;SDS_P1;SDS_P2;PMS_P1;PMS_P2;Temp;Humidity;BMP_temperature;BMP_pressure;BME280_temperature;BME280_humidity;BME280_pressure;Samples;Min_cycle;Max_cycle;Signal;HPM_P1;HPM_P2
2021/10/18 02:09:52;;;;;;;;;;;;;;;6.76;100.00;100265.16;5775932;23;20338;-81
2021/10/18 02:12:18;;;;;;;;;;;;;;;6.81;100.00;100271.22;5003807;28;19922;-81
2021/10/18 02:14:44;;;;;;;;;;;;;;;6.82;100.00;100266.81;5020507;28;19922;-81
2021/10/18 02:17:09;;;;;;;;;;;;;;;6.84;100.00;100267.63;5005123;28;19929;-84
2021/10/18 02:19:34;;;;;;;;;;;;;;;6.86;100.00;100263.19;5005216;28;19918;-82
2021/10/18 02:21:59;;;;;;;;;;;;;;;6.88;100.00;100271.97;5005516;28;20004;-82
2021/10/18 02:24:25;;;;;;;;;;;;;;;6.90;100.00;100272.78;5004200;28;19984;-82
2021/10/18 02:26:50;;;;;;;;;;;;;;;6.91;100.00;100264.00;5005050;28;19929;-82
2021/10/18 02:29:15;;;;;;;;;;;;;;;6.94;100.00;100260.41;5004864;28;20272;-82
2021/10/18 02:31:41;;;;;;;;;;;;;;;6.95;100.00;100270.91;5005243;28;19921;-83
2021/10/18 02:34:06;;;;;;;;;;;;;;;6.98;100.00;100262.09;5004926;28;19918;-83
2021/10/18 02:36:31;;;;;;;;;;;;;;;7.00;100.00;100271.69;5004943;28;20008;-82
2021/10/18 02:38:57;;;;;;;;;;;;;;;6.98;100.00;100265.59;5003738;28;19928;-83
2021/10/18 02:41:22;;;;;;;;;;;;;;;7.01;100.00;100267.31;5005155;28;19924;-82
2021/10/18 02:43:47;;;;;;;;;;;;;;;7.03;100.00;100276.91;5004731;28;19925;-81
2021/10/18 02:46:13;;;;;;;;;;;;;;;7.04;100.00;100280.41;5004778;28;20017;-81
2021/10/18 02:48:38;;;;;;;;;;;;;;;7.06;100.00;100283.88;5005353;28;19972;-81
2021/10/18 02:51:04;;;;;;;;;;;;;;;7.08;100.00;100282.97;5004784;28;19921;-82
2021/10/18 02:53:29;;;;;;;;;;;;;;;7.13;100.00;100279.34;5003459;28;20384;-81
2021/10/18 02:55:54;;;;;;;;;;;;;;;7.34;100.00;100271.00;5003532;28;19987;-81
2021/10/18 02:58:19;;;;;;;;;;;;;;;7.55;100.00;100274.06;5005174;28;19943;-81
2021/10/18 03:00:45;;;;;;;;;;;;;;;7.60;100.00;100278.31;5004665;28;19933;-81
2021/10/18 03:03:10;;;;;;;;;;;;;;;7.60;100.00;100278.31;5004161;28;19917;-81
2021/10/18 03:05:35;;;;;;;;;;;;;;;7.60;100.00;100282.72;5004316;28;19967;-81
2021/10/18 03:08:01;;;;;;;;;;;;;;;7.59;100.00;100281.84;5003308;28;19917;-80
2021/10/18 03:10:26;;;;;;;;;;;;;;;7.55;100.00;100279.34;5003070;28;19992;-81
2021/10/18 03:12:51;;;;;;;;;;;;;;;7.54;100.00;100278.44;5004039;28;19925;-81
2021/10/18 03:15:17;;;;;;;;;;;;;;;7.54;100.00;100277.59;5004292;28;19961;-81
2021/10/18 03:17:43;;;;;;;;;;;;;;;7.56;100.00;100281.06;5004210;28;19965;-81
2021/10/18 03:20:09;;;;;;;;;;;;;;;7.56;100.00;100286.31;5003593;28;19921;-81
2021/10/18 03:22:34;;;;;;;;;;;;;;;7.56;100.00;100288.97;5003951;28;19921;-81
2021/10/18 03:25:00;;;;;;;;;;;;;;;7.56;100.00;100286.31;5002727;28;19918;-81
2021/10/18 03:27:25;;;;;;;;;;;;;;;7.55;100.00;100284.63;5004165;28;19921;-81
2021/10/18 03:29:50;;;;;;;;;;;;;;;7.55;100.00;100289.88;5003906;28;19980;-81
2021/10/18 03:32:16;;;;;;;;;;;;;;;7.54;100.00;100283.72;5003678;28;20269;-82
2021/10/18 03:34:41;;;;;;;;;;;;;;;7.55;100.00;100276.69;5004229;28;19972;-80
2021/10/18 03:37:06;;;;;;;;;;;;;;;7.57;100.00;100273.09;5003919;28;19920;-81
2021/10/18 03:39:32;;;;;;;;;;;;;;;7.55;100.00;100274.06;5002131;28;19972;-81
2021/10/18 08:01:14;;;;;;;;;;;;;;;3.72;91.55;100462.22;5111155;22;19945;-81
2021/10/18 08:03:39;;;;;;;;;;;;;;;3.71;90.78;100461.38;4972303;28;19922;-82
2021/10/18 08:06:04;;;;;;;;;;;;;;;3.74;90.03;100469.22;4973631;28;19984;-82
2021/10/18 08:08:30;;;;;;;;;;;;;;;3.76;89.55;100463.97;4973057;28;19982;-82
2021/10/18 08:10:56;;;;;;;;;;;;;;;3.74;88.71;100463.97;4974002;28;19930;-82
2021/10/18 08:13:22;;;;;;;;;;;;;;;3.78;88.49;100459.59;4973623;28;19918;-82
2021/10/18 08:15:47;;;;;;;;;;;;;;;3.80;87.85;100456.09;4955195;28;19944;-82
2021/10/18 08:18:12;;;;;;;;;;;;;;;3.84;87.35;100456.94;4973280;28;19922;-83
2021/10/18 08:20:38;;;;;;;;;;;;;;;3.86;87.27;100460.44;4973787;28;20861;-82
2021/10/18 08:23:03;;;;;;;;;;;;;;;3.87;86.93;100456.94;4972514;28;19925;-82
2021/10/18 08:25:29;;;;;;;;;;;;;;;3.89;86.82;100465.66;4973784;28;19976;-83
2021/10/18 08:27:54;;;;;;;;;;;;;;;3.90;86.28;100469.16;4973460;28;20006;-82
2021/10/18 08:30:20;;;;;;;;;;;;;;;3.91;85.85;100468.28;4972001;28;19925;-83
2021/10/18 08:32:45;;;;;;;;;;;;;;;3.94;85.55;100460.38;4973087;28;20016;-83
2021/10/18 08:35:11;;;;;;;;;;;;;;;3.94;85.31;100463.91;4972899;28;19941;-83
2021/10/18 08:40:22;;;;;;;;;;;;;;;3.99;85.00;100456.88;4964140;28;19925;-84
2021/10/18 08:43:25;;;;;;;;;;;;;;;4.06;84.84;100456.84;4972884;28;20511;-83
2021/10/18 08:45:51;;;;;;;;;;;;;;;4.08;84.64;100455.94;4972162;28;19926;-83
2021/10/18 08:48:16;;;;;;;;;;;;;;;4.11;84.71;100453.31;4973258;28;19922;-83
2021/10/18 08:50:41;;;;;;;;;;;;;;;4.12;84.56;100443.72;4955434;28;19930;-83
2021/10/18 08:53:06;;;;;;;;;;;;;;;4.16;84.26;100448.94;4973306;28;20444;-83
2021/10/18 08:55:36;;;;;;;;;;;;;;;4.19;84.30;100443.63;4973235;28;19925;-82
2021/10/18 08:58:01;;;;;;;;;;;;;;;4.24;84.04;100438.38;4972829;28;19918;-82
2021/10/18 09:00:51;;;;;;;;;;;;;;;4.23;83.90;100427.88;4971828;28;19922;-83
2021/10/18 09:03:16;;;;;;;;;;;;;;;4.23;83.86;100428.78;4972981;28;19980;-83
2021/10/18 09:05:41;;;;;;;;;;;;;;;4.26;83.72;100433.09;4973135;28;19922;-83
2021/10/18 09:08:06;;;;;;;;;;;;;;;4.29;83.79;100438.34;4973219;28;19921;-82
2021/10/18 09:10:32;;;;;;;;;;;;;;;4.32;83.73;100454.06;4972125;28;20282;-82
2021/10/18 09:13:13;;;;;;;;;;;;;;;4.38;83.70;100453.16;4954773;28;19918;-82
2021/10/18 09:15:38;;;;;;;;;;;;;;;4.40;83.86;100451.38;4946585;28;19976;-82
2021/10/18 09:18:03;;;;;;;;;;;;;;;4.42;83.93;100447.88;4976409;28;19918;-81
2021/10/18 09:20:28;;;;;;;;;;;;;;;4.45;84.26;100461.00;4977131;28;19922;-83
2021/10/18 09:23:14;;;;;;;;;;;;;;;4.47;84.36;100446.09;4976991;28;20420;-82
2021/10/18 09:25:39;;;;;;;;;;;;;;;4.50;84.29;100446.06;4976632;28;19918;-82
2021/10/18 09:28:12;;;;;;;;;;;;;;;4.52;84.53;100449.53;4976928;28;20012;-83
2021/10/18 09:30:42;;;;;;;;;;;;;;;4.58;84.57;100447.75;4975552;28;19922;-82
2021/10/18 09:33:16;;;;;;;;;;;;;;;4.62;84.57;100447.72;4976917;28;19918;-82
2021/10/18 09:35:42;;;;;;;;;;;;;;;4.61;84.37;100446.00;4976399;28;20017;-82
2021/10/18 09:38:08;;;;;;;;;;;;;;;4.65;84.45;100452.09;4975904;28;20017;-82
2021/10/18 09:40:34;;;;;;;;;;;;;;;4.65;84.60;100454.72;4976676;28;19918;-82
2021/10/18 09:43:18;;;;;;;;;;;;;;;4.69;84.92;100453.78;4975961;28;20408;-82
2021/10/18 09:46:15;;;;;;;;;;;;;;;4.71;84.71;100455.53;4975486;28;20670;-82
2021/10/18 10:53:05;;;;;;;;;;;;;;;5.28;88.23;100420.84;4994838;28;19925;-82
2021/10/18 10:55:33;;;;;;;;;;;;;;;5.31;88.70;100416.44;4993743;28;19926;-83
2021/10/18 10:58:01;;;;;;;;;;;;;;;5.33;88.74;100410.28;4994709;28;19917;-83
2021/10/18 11:00:31;;;;;;;;;;;;;;;5.33;88.67;100405.03;4972059;28;19926;-83
2021/10/18 11:03:15;;;;;;;;;;;;;;;5.35;88.80;100403.25;4975405;28;20349;-83
2021/10/18 11:06:02;;;;;;;;;;;;;;;5.37;89.02;100408.47;4975033;28;19922;-83
2021/10/18 11:08:29;;;;;;;;;;;;;;;5.44;89.32;100407.50;4974706;28;19922;-82
2021/10/18 11:10:55;;;;;;;;;;;;;;;5.44;89.58;100407.50;4974965;28;19950;-81
2021/10/18 11:13:20;;;;;;;;;;;;;;;5.48;89.89;100396.06;4975089;28;19965;-82
2021/10/18 11:15:45;;;;;;;;;;;;;;;5.44;89.78;100397.88;4973752;28;20025;-83
2021/10/18 11:18:12;;;;;;;;;;;;;;;5.49;89.89;100407.44;4975005;28;19922;-82
2021/10/18 11:20:38;;;;;;;;;;;;;;;5.50;89.84;100404.81;4974250;28;19918;-83
2021/10/18 11:23:04;;;;;;;;;;;;;;;5.49;89.95;100402.19;4974997;28;19925;-82
2021/10/18 11:25:29;;;;;;;;;;;;;;;5.52;90.16;100397.78;4974942;28;19952;-83
2021/10/18 11:27:56;;;;;;;;;;;;;;;5.56;90.30;100402.09;4974487;28;20385;-83
2021/10/18 11:30:24;;;;;;;;;;;;;;;5.58;90.69;100402.09;4973508;28;20389;-82
2021/10/18 11:32:55;;;;;;;;;;;;;;;5.60;90.74;100395.94;4973911;28;19988;-82
2021/10/18 11:35:20;;;;;;;;;;;;;;;5.59;90.75;100391.56;4974235;28;19922;-82
2021/10/18 11:37:49;;;;;;;;;;;;;;;5.60;90.72;100382.78;4974402;28;19930;-82
2021/10/18 11:40:16;;;;;;;;;;;;;;;5.61;90.77;100379.25;4973562;28;19918;-81
2021/10/18 11:42:54;;;;;;;;;;;;;;;5.68;90.87;100379.16;4974595;28;20025;-81
2021/10/18 11:45:22;;;;;;;;;;;;;;;5.68;90.95;100371.28;4971938;28;19918;-83
2021/10/18 11:47:47;;;;;;;;;;;;;;;5.67;90.87;100364.31;4974300;28;19933;-82
2021/10/18 11:50:15;;;;;;;;;;;;;;;5.67;90.73;100365.16;4974483;28;20017;-82
2021/10/18 11:52:42;;;;;;;;;;;;;;;5.70;90.75;100366.91;4973685;28;19921;-82
2021/10/18 11:55:08;;;;;;;;;;;;;;;5.68;90.79;100366.91;4974117;28;20332;-82
2021/10/18 11:57:34;;;;;;;;;;;;;;;5.71;91.12;100358.09;4974217;28;20401;-82
2021/10/18 12:00:00;;;;;;;;;;;;;;;5.71;91.40;100348.47;4972320;28;20284;-82
2021/10/18 12:02:25;;;;;;;;;;;;;;;5.79;91.91;100350.97;4993586;28;20005;-83
2021/10/18 12:04:57;;;;;;;;;;;;;;;5.83;92.40;100345.63;4992631;28;19926;-82
2021/10/18 12:07:49;;;;;;;;;;;;;;;5.87;92.64;100340.34;4992754;28;19964;-81
2021/10/18 12:10:17;;;;;;;;;;;;;;;5.85;92.63;100345.63;4987211;28;20392;-83
2021/10/18 12:13:01;;;;;;;;;;;;;;;5.83;92.62;100344.78;4992364;28;19926;-81
2021/10/18 12:15:26;;;;;;;;;;;;;;;5.91;93.28;100342.91;4966942;28;20369;-82
2021/10/18 12:17:51;;;;;;;;;;;;;;;5.91;93.46;100334.16;4992623;28;19918;-82
2021/10/18 12:20:17;;;;;;;;;;;;;;;5.95;93.67;100322.69;4993231;28;19921;-83
2021/10/18 12:23:01;;;;;;;;;;;;;;;5.92;93.96;100336.75;4975665;28;19918;-83
2021/10/18 12:25:26;;;;;;;;;;;;;;;5.94;94.00;100348.13;4991969;28;19930;-82
2021/10/18 12:27:53;;;;;;;;;;;;;;;5.96;94.09;100343.72;4991707;28;19971;-83
2021/10/18 12:30:40;;;;;;;;;;;;;;;5.97;94.25;100342.84;4974177;28;19988;-81
2021/10/18 12:33:06;;;;;;;;;;;;;;;5.99;94.63;100337.56;4991713;28;20372;-83
2021/10/18 12:35:32;;;;;;;;;;;;;;;6.01;95.07;100343.66;4992656;28;19922;-83
2021/10/18 12:37:57;;;;;;;;;;;;;;;6.06;95.48;100333.06;4974894;28;19987;-82
2021/10/18 12:40:22;;;;;;;;;;;;;;;6.06;95.81;100323.41;4975519;28;20365;-82
2021/10/18 12:42:48;;;;;;;;;;;;;;;6.09;95.97;100322.50;4992407;28;20378;-82
2021/10/18 12:45:15;;;;;;;;;;;;;;;6.14;95.99;100311.03;4991036;28;20336;-81
2021/10/18 12:47:54;;;;;;;;;;;;;;;6.08;95.85;100305.84;4975039;28;19952;-81
2021/10/18 12:50:20;;;;;;;;;;;;;;;6.13;95.60;100304.00;4992256;28;19961;-81
2021/10/18 12:52:56;;;;;;;;;;;;;;;6.19;95.83;100297.78;4991912;28;19930;-82
2021/10/18 12:55:23;;;;;;;;;;;;;;;6.27;96.23;100300.28;4992820;28;19918;-83
2021/10/18 12:58:07;;;;;;;;;;;;;;;6.30;96.78;100306.38;4975254;28;20277;-83
2021/10/18 13:00:34;;;;;;;;;;;;;;;6.31;97.03;100302.81;4991262;28;20444;-83
2021/10/18 13:03:08;;;;;;;;;;;;;;;6.25;97.23;100302.94;4992534;28;19929;-82
2021/10/18 13:05:40;;;;;;;;;;;;;;;6.19;97.32;100310.94;4992654;28;19953;-82
2021/10/18 13:08:05;;;;;;;;;;;;;;;6.05;96.92;100312.91;4966447;28;20281;-82
2021/10/18 13:10:32;;;;;;;;;;;;;;;5.92;96.10;100317.47;4967703;28;19921;-82
2021/10/18 13:12:58;;;;;;;;;;;;;;;5.72;95.20;100309.88;4992306;28;19921;-83
2021/10/18 13:15:23;;;;;;;;;;;;;;;5.55;94.17;100308.38;4991106;28;20354;-83
2021/10/18 13:17:49;;;;;;;;;;;;;;;5.41;93.91;100307.69;4992384;28;19953;-83
2021/10/18 13:20:15;;;;;;;;;;;;;;;5.32;94.67;100297.28;4992501;28;19957;-82
2021/10/18 13:22:42;;;;;;;;;;;;;;;5.33;96.23;100288.50;4992464;28;19949;-82
2021/10/18 13:25:07;;;;;;;;;;;;;;;5.51;98.86;100280.38;4966934;28;19929;-82
2021/10/18 13:27:33;;;;;;;;;;;;;;;5.70;100.00;100272.25;4992049;28;19918;-82
2021/10/18 13:29:59;;;;;;;;;;;;;;;5.86;100.00;100262.34;4990971;28;19960;-82
2021/10/18 13:32:24;;;;;;;;;;;;;;;6.06;100.00;100262.03;4992082;28;20388;-82
2021/10/18 13:34:49;;;;;;;;;;;;;;;6.27;100.00;100271.31;4992200;28;19918;-82
2021/10/18 13:37:15;;;;;;;;;;;;;;;6.36;100.00;100269.38;4992368;28;19924;-82
2021/10/18 13:39:41;;;;;;;;;;;;;;;6.43;100.00;100274.53;4992263;28;19918;-82
2021/10/18 13:42:07;;;;;;;;;;;;;;;6.51;100.00;100270.00;4992216;28;19922;-82
2021/10/18 13:44:33;;;;;;;;;;;;;;;6.59;100.00;100275.13;4973441;28;19922;-82
2021/10/18 13:46:58;;;;;;;;;;;;;;;6.64;100.00;100284.69;4992209;28;20361;-82
2021/10/18 13:49:23;;;;;;;;;;;;;;;6.70;100.00;100273.16;4992172;28;19964;-82
2021/10/18 13:51:48;;;;;;;;;;;;;;;6.75;100.00;100275.72;4992139;28;20045;-81
2021/10/18 13:54:14;;;;;;;;;;;;;;;6.79;100.00;100275.63;4992046;28;20425;-83
2021/10/18 13:56:41;;;;;;;;;;;;;;;6.82;100.00;100272.06;4992074;28;19922;-82
2021/10/18 13:59:06;;;;;;;;;;;;;;;6.85;100.00;100275.50;4991035;28;19922;-82
2021/10/18 14:01:31;;;;;;;;;;;;;;;6.88;100.00;100277.22;4992010;28;20324;-82
2021/10/18 14:03:57;;;;;;;;;;;;;;;7.17;100.00;100281.91;4994121;28;20021;-81
2021/10/18 14:06:23;;;;;;;;;;;;;;;7.06;100.00;100290.00;4995729;28;20357;-81
2021/10/18 14:08:48;;;;;;;;;;;;;;;7.05;100.00;100290.03;4995782;28;19952;-80
2021/10/18 14:11:13;;;;;;;;;;;;;;;7.03;100.00;100291.84;4995255;28;19922;-81
2021/10/18 14:13:39;;;;;;;;;;;;;;;7.01;100.00;100291.88;4994682;28;19917;-81
2021/10/18 14:16:04;;;;;;;;;;;;;;;7.06;100.00;100290.00;4993834;28;20332;-80
2021/10/18 14:18:30;;;;;;;;;;;;;;;7.02;100.00;100293.63;4995639;28;19922;-82
2021/10/18 14:20:55;;;;;;;;;;;;;;;7.07;100.00;100294.41;4977839;28;19918;-80
2021/10/18 14:23:21;;;;;;;;;;;;;;;7.11;100.00;100286.44;4995777;28;19980;-80
2021/10/18 14:25:47;;;;;;;;;;;;;;;6.93;100.00;100285.91;4995345;28;20289;-81
2021/10/18 14:28:12;;;;;;;;;;;;;;;5.35;100.00;100273.59;4995190;28;19925;-80
2021/10/18 14:30:38;;;;;;;;;;;;;;;4.42;100.00;100285.19;4994038;28;19917;-79
2021/10/18 14:33:03;;;;;;;;;;;;;;;4.08;100.00;100274.13;4995178;28;19928;-80
2021/10/18 14:35:29;;;;;;;;;;;;;;;3.86;100.00;100274.31;4993867;28;19969;-80
2021/10/18 14:37:54;;;;;;;;;;;;;;;3.62;100.00;100277.94;4994774;28;20344;-80
2021/10/18 14:40:20;;;;;;;;;;;;;;;3.62;100.00;100270.09;4994851;28;19929;-79
2021/10/18 14:42:45;;;;;;;;;;;;;;;3.45;100.00;100260.59;4993020;28;20848;-80
2021/10/18 14:45:10;;;;;;;;;;;;;;;3.34;100.00;100240.59;4993292;28;20373;-81
2021/10/18 14:47:36;;;;;;;;;;;;;;;3.26;100.00;100238.00;4994860;28;19997;-80
2021/10/18 14:50:05;;;;;;;;;;;;;;;3.13;100.00;100221.50;4994325;28;20358;-81
2021/10/18 14:52:31;;;;;;;;;;;;;;;3.09;99.25;100225.88;4994759;28;19969;-79
2021/10/18 14:54:56;;;;;;;;;;;;;;;3.05;98.13;100250.34;4994806;28;19928;-79
2021/10/18 14:57:24;;;;;;;;;;;;;;;3.01;96.94;100248.59;4994734;28;19914;-79
2021/10/18 14:59:49;;;;;;;;;;;;;;;2.91;96.34;100241.69;4967796;28;20400;-79
2021/10/18 15:02:14;;;;;;;;;;;;;;;2.87;96.03;100247.78;4994226;28;20819;-81
2021/10/18 15:04:39;;;;;;;;;;;;;;;2.90;95.61;100245.16;4993931;28;19925;-80
2021/10/18 15:07:05;;;;;;;;;;;;;;;2.72;94.88;100256.56;4994687;28;20579;-80
2021/10/18 15:09:34;;;;;;;;;;;;;;;2.67;94.45;100263.56;4994202;28;19929;-79
2021/10/18 15:11:59;;;;;;;;;;;;;;;2.61;93.98;100266.22;4976236;28;19949;-81
2021/10/18 15:14:24;;;;;;;;;;;;;;;2.61;93.86;100272.28;4993357;28;19922;-79
2021/10/18 15:16:49;;;;;;;;;;;;;;;2.54;93.67;100281.91;4976515;28;19922;-79
2021/10/18 15:19:15;;;;;;;;;;;;;;;2.51;93.53;100278.44;4977232;28;19926;-81
2021/10/18 15:21:42;;;;;;;;;;;;;;;2.44;92.70;100281.94;4994343;28;19914;-80
2021/10/18 15:24:07;;;;;;;;;;;;;;;2.47;92.85;100287.16;4976111;28;19967;-81
2021/10/18 15:26:33;;;;;;;;;;;;;;;2.38;92.10;100295.00;4993775;28;20330;-81
2021/10/18 15:28:59;;;;;;;;;;;;;;;2.26;92.07;100296.78;4993371;28;20034;-81
2021/10/18 15:31:25;;;;;;;;;;;;;;;2.27;92.02;100288.06;4992957;28;19922;-79
2021/10/18 15:33:50;;;;;;;;;;;;;;;2.25;92.25;100286.31;4993815;28;19926;-80
2021/10/18 15:36:15;;;;;;;;;;;;;;;2.18;91.94;100293.28;4994068;28;20361;-79
2021/10/18 15:38:41;;;;;;;;;;;;;;;2.18;91.68;100307.22;4994105;28;19968;-81
2021/10/18 15:41:06;;;;;;;;;;;;;;;2.10;91.27;100308.97;4993875;28;20012;-79
2021/10/18 15:43:31;;;;;;;;;;;;;;;2.07;91.25;100313.34;4994002;28;19922;-80
2021/10/18 15:45:57;;;;;;;;;;;;;;;1.94;91.20;100308.09;4993002;28;20388;-81
2021/10/18 15:48:23;;;;;;;;;;;;;;;2.00;91.25;100308.09;4993200;28;19945;-80
2021/10/18 15:50:48;;;;;;;;;;;;;;;1.95;90.75;100315.09;4992451;28;19925;-80
2021/10/18 15:53:13;;;;;;;;;;;;;;;1.97;90.41;100307.25;4991201;28;19922;-79
2021/10/18 15:55:39;;;;;;;;;;;;;;;1.85;90.97;100292.44;4992379;28;19926;-79
2021/10/18 15:58:05;;;;;;;;;;;;;;;1.81;90.71;100291.53;4992562;28;20455;-80
2021/10/18 16:00:30;;;;;;;;;;;;;;;1.74;90.36;100304.59;4970082;28;20028;-79
2021/10/18 16:02:56;;;;;;;;;;;;;;;1.81;90.50;100306.34;4973135;28;20033;-79
2021/10/18 16:05:21;;;;;;;;;;;;;;;1.75;89.99;100311.56;4974044;28;19933;-80
2021/10/18 16:07:46;;;;;;;;;;;;;;;1.71;90.12;100309.81;4973398;28;20389;-79
2021/10/18 16:10:12;;;;;;;;;;;;;;;1.72;90.37;100319.41;4960915;28;19929;-78
2021/10/18 16:12:37;;;;;;;;;;;;;;;1.64;90.14;100316.78;4954806;28;19923;-79
2021/10/18 16:15:03;;;;;;;;;;;;;;;1.64;90.11;100311.53;4953487;28;19922;-80
2021/10/18 16:17:28;;;;;;;;;;;;;;;1.59;89.60;100306.31;4953068;28;19977;-79
2021/10/18 16:19:55;;;;;;;;;;;;;;;1.77;91.88;100309.81;4954475;28;19929;-78
2021/10/18 16:22:20;;;;;;;;;;;;;;;1.90;93.65;100308.97;4954531;28;19945;-79
2021/10/18 16:24:46;;;;;;;;;;;;;;;2.14;96.74;100302.03;4952369;28;20399;-80
2021/10/18 16:27:11;;;;;;;;;;;;;;;2.51;100.00;100305.47;4952340;28;19927;-79
2021/10/18 16:29:37;;;;;;;;;;;;;;;2.70;100.00;100306.31;4953130;28;19987;-79
2021/10/18 16:32:04;;;;;;;;;;;;;;;2.84;100.00;100313.22;4952825;28;20314;-81
2021/10/18 16:34:30;;;;;;;;;;;;;;;2.87;100.00;100314.13;4952973;28;20005;-82
2021/10/18 16:36:55;;;;;;;;;;;;;;;2.95;100.00;100306.22;4954339;28;19965;-80
2021/10/18 16:39:20;;;;;;;;;;;;;;;3.04;100.00;100298.31;4954150;28;19919;-80
2021/10/18 16:41:46;;;;;;;;;;;;;;;3.05;100.00;100292.22;4954628;28;19922;-81
2021/10/18 16:44:11;;;;;;;;;;;;;;;3.09;100.00;100299.22;4952889;28;19914;-80
2021/10/18 16:46:39;;;;;;;;;;;;;;;3.12;100.00;100294.81;4952789;28;20400;-80
2021/10/18 16:49:15;;;;;;;;;;;;;;;3.20;100.00;100282.56;4954110;28;19958;-79
2021/10/18 16:51:44;;;;;;;;;;;;;;;3.20;100.00;100279.94;4952673;28;20370;-80
2021/10/18 16:54:10;;;;;;;;;;;;;;;3.17;100.00;100287.81;4952415;28;19919;-80
2021/10/18 16:56:35;;;;;;;;;;;;;;;3.16;100.00;100293.91;4954027;28;19925;-80
2021/10/18 16:59:01;;;;;;;;;;;;;;;3.17;100.00;100293.06;4935817;29;19926;-79
2021/10/18 17:01:26;;;;;;;;;;;;;;;3.22;100.00;100301.75;4953158;28;19931;-80
2021/10/18 17:03:51;;;;;;;;;;;;;;;3.34;100.00;100304.31;4954005;28;19918;-80
2021/10/18 17:06:16;;;;;;;;;;;;;;;3.33;100.00;100313.03;4954190;28;19926;-81
2021/10/18 17:08:42;;;;;;;;;;;;;;;3.31;100.00;100306.09;4953990;28;19919;-80
2021/10/18 17:11:07;;;;;;;;;;;;;;;3.32;100.00;100292.09;4953738;29;20362;-80
2021/10/18 17:13:32;;;;;;;;;;;;;;;3.32;100.00;100282.50;4954005;29;19926;-80
2021/10/18 17:15:57;;;;;;;;;;;;;;;3.34;100.00;100282.50;4952581;29;19919;-80
2021/10/18 17:18:23;;;;;;;;;;;;;;;3.33;100.00;100273.75;4953736;29;20294;-80
2021/10/18 17:20:48;;;;;;;;;;;;;;;3.33;100.00;100265.88;4953844;29;19920;-80
2021/10/18 17:23:14;;;;;;;;;;;;;;;3.32;100.00;100260.66;4953707;29;19918;-81
2021/10/18 17:25:39;;;;;;;;;;;;;;;3.33;100.00;100258.03;4953888;29;19922;-81
2021/10/18 17:28:06;;;;;;;;;;;;;;;3.35;100.00;100277.25;4936496;29;19922;-80
2021/10/18 17:30:32;;;;;;;;;;;;;;;3.40;100.00;100272.84;4952386;29;19918;-80
2021/10/18 17:32:57;;;;;;;;;;;;;;;3.42;100.00;100275.47;4953669;29;20390;-81
2021/10/18 17:35:23;;;;;;;;;;;;;;;3.46;100.00;100279.78;4953693;29;19933;-80
2021/10/18 17:37:48;;;;;;;;;;;;;;;3.44;100.00;100287.66;4937484;29;20018;-80
2021/10/18 17:40:13;;;;;;;;;;;;;;;3.41;100.00;100290.28;4957415;29;19918;-80
2021/10/18 17:42:39;;;;;;;;;;;;;;;3.45;100.00;100278.94;4957417;28;19926;-80
2021/10/18 17:45:05;;;;;;;;;;;;;;;3.51;100.00;100290.25;4956125;29;19923;-79
2021/10/18 17:47:31;;;;;;;;;;;;;;;3.47;100.00;100304.25;4957433;28;19922;-82
2021/10/18 17:49:57;;;;;;;;;;;;;;;3.49;100.00;100310.34;4957428;29;20476;-79
2021/10/18 17:52:22;;;;;;;;;;;;;;;3.45;100.00;100320.84;4957084;29;19918;-80
2021/10/18 17:54:48;;;;;;;;;;;;;;;3.47;100.00;100314.75;4957078;28;19970;-80
2021/10/18 17:57:13;;;;;;;;;;;;;;;3.49;100.00;100320.84;4957025;28;19918;-80
2021/10/18 17:59:39;;;;;;;;;;;;;;;3.50;100.00;100306.88;4955768;29;20385;-81
2021/10/18 18:02:04;;;;;;;;;;;;;;;3.53;100.00;100310.34;4956944;28;20383;-80
2021/10/18 18:04:29;;;;;;;;;;;;;;;3.58;100.00;100299.81;4956838;29;20428;-81
2021/10/18 18:06:55;;;;;;;;;;;;;;;3.59;100.00;100299.81;4957014;28;19950;-81
2021/10/18 18:09:20;;;;;;;;;;;;;;;3.62;100.00;100304.16;4956815;28;19966;-79
2021/10/18 18:11:45;;;;;;;;;;;;;;;3.64;100.00;100299.78;4956808;29;19918;-80
2021/10/18 18:14:10;;;;;;;;;;;;;;;3.67;100.00;100312.88;4955343;28;20009;-80
2021/10/18 18:16:38;;;;;;;;;;;;;;;3.67;100.00;100322.47;4956614;28;19930;-80
2021/10/18 18:19:03;;;;;;;;;;;;;;;3.72;100.00;100336.41;4957062;28;20005;-80
2021/10/18 18:21:28;;;;;;;;;;;;;;;3.73;100.00;100331.16;4956593;28;20030;-81
2021/10/18 18:23:53;;;;;;;;;;;;;;;3.78;100.00;100339.00;4956504;28;19936;-80
2021/10/18 18:26:21;;;;;;;;;;;;;;;3.81;100.00;100349.47;4956440;28;19923;-80
2021/10/18 18:28:46;;;;;;;;;;;;;;;3.83;100.00;100350.34;4956571;28;19924;-81
2021/10/18 18:31:11;;;;;;;;;;;;;;;3.89;100.00;100349.44;4955322;28;20009;-80
2021/10/18 18:33:37;;;;;;;;;;;;;;;3.90;100.00;100362.53;4956433;28;19989;-81
2021/10/18 18:36:03;;;;;;;;;;;;;;;3.92;100.00;100360.75;4956525;29;19973;-80
2021/10/18 18:38:30;;;;;;;;;;;;;;;3.95;99.75;100359.88;4956306;28;19915;-80
2021/10/18 18:40:55;;;;;;;;;;;;;;;3.95;99.30;100358.13;4956352;29;20378;-81
2021/10/18 18:43:20;;;;;;;;;;;;;;;4.04;98.64;100359.81;4956312;29;20025;-81
2021/10/18 18:45:46;;;;;;;;;;;;;;;4.05;97.92;100352.81;4955073;28;20388;-81
2021/10/18 18:48:11;;;;;;;;;;;;;;;4.07;97.22;100348.41;4955924;28;20013;-81
2021/10/18 18:50:36;;;;;;;;;;;;;;;4.07;96.74;100333.56;4956311;28;19997;-79
2021/10/18 18:53:02;;;;;;;;;;;;;;;4.13;96.35;100330.03;4955923;28;20093;-82
2021/10/18 18:55:28;;;;;;;;;;;;;;;4.13;95.67;100320.41;4956034;28;19920;-81
2021/10/18 18:57:53;;;;;;;;;;;;;;;4.13;95.03;100312.56;4955948;28;19950;-81
2021/10/18 19:00:19;;;;;;;;;;;;;;;4.13;94.56;100312.56;4954651;28;19993;-80
2021/10/18 19:02:45;;;;;;;;;;;;;;;4.21;94.24;100324.72;4955968;29;20363;-80
2021/10/18 19:05:11;;;;;;;;;;;;;;;4.22;93.75;100315.97;4955075;29;19954;-81
2021/10/18 19:07:36;;;;;;;;;;;;;;;4.22;93.22;100310.72;4955664;29;19932;-80
2021/10/18 19:10:02;;;;;;;;;;;;;;;4.24;93.07;100304.56;4955794;29;19990;-81
2021/10/18 19:12:27;;;;;;;;;;;;;;;4.26;92.63;100307.19;4955717;28;19919;-79
2021/10/18 19:14:53;;;;;;;;;;;;;;;4.28;92.26;100316.78;4954556;29;19923;-80
2021/10/18 19:17:18;;;;;;;;;;;;;;;4.29;91.89;100318.53;4955716;28;19919;-81
2021/10/18 19:19:43;;;;;;;;;;;;;;;4.30;91.22;100329.91;4955634;28;19981;-79
2021/10/18 19:22:09;;;;;;;;;;;;;;;4.32;91.17;100330.75;4955393;29;20366;-79
2021/10/18 19:24:34;;;;;;;;;;;;;;;4.34;90.81;100331.59;4955487;28;19924;-79
2021/10/18 19:26:59;;;;;;;;;;;;;;;4.39;90.50;100332.44;4955609;29;19954;-82
2021/10/18 19:29:24;;;;;;;;;;;;;;;4.40;90.21;100339.41;4954096;29;20398;-80
2021/10/18 19:31:50;;;;;;;;;;;;;;;4.43;90.07;100330.66;4955380;29;20294;-79
2021/10/18 19:34:16;;;;;;;;;;;;;;;4.43;89.88;100334.13;4955244;29;19926;-81
2021/10/18 19:36:42;;;;;;;;;;;;;;;4.45;89.41;100336.75;4955181;28;19925;-81
2021/10/18 19:39:07;;;;;;;;;;;;;;;4.48;89.54;100352.47;4955297;29;19918;-81
2021/10/18 19:41:33;;;;;;;;;;;;;;;4.50;89.06;100348.97;4955221;29;19997;-79
2021/10/18 19:44:01;;;;;;;;;;;;;;;4.57;89.13;100346.28;4955252;29;19969;-81
2021/10/18 19:46:26;;;;;;;;;;;;;;;4.58;88.88;100350.63;4953887;29;20306;-79
2021/10/18 19:48:51;;;;;;;;;;;;;;;4.60;88.76;100348.88;4954906;28;19973;-79
2021/10/18 19:51:18;;;;;;;;;;;;;;;4.60;88.49;100356.75;4954995;28;20397;-80
2021/10/18 19:53:44;;;;;;;;;;;;;;;4.64;88.43;100371.56;4953984;29;20441;-79
2021/10/18 19:56:09;;;;;;;;;;;;;;;4.65;88.23;100370.69;4955204;28;20017;-80
2021/10/18 19:58:35;;;;;;;;;;;;;;;4.68;88.21;100365.44;4955011;28;19926;-79
2021/10/18 20:01:00;;;;;;;;;;;;;;;4.67;88.04;100375.03;4952959;28;19932;-79
2021/10/18 20:03:25;;;;;;;;;;;;;;;4.71;88.07;100368.03;4955074;28;19929;-79
2021/10/18 20:05:50;;;;;;;;;;;;;;;4.73;87.66;100356.59;4954835;28;19932;-80
2021/10/18 20:08:16;;;;;;;;;;;;;;;4.75;87.63;100359.22;4937551;29;19929;-79
2021/10/18 20:10:41;;;;;;;;;;;;;;;4.76;87.48;100360.97;4954594;28;20296;-80
2021/10/18 20:13:06;;;;;;;;;;;;;;;4.80;87.97;100352.16;4954774;28;19925;-81
2021/10/18 20:15:31;;;;;;;;;;;;;;;4.80;87.72;100351.28;4953337;29;20409;-79